Time;durP1;ratioP1;P1;durP2;ratioP2;P2;SDS_P1;SDS_P2;PMS_P1;PMS_P2;Temp;Humidity;BMP_temperature;BMP_pressure;BME280_temperature;BME280_humidity;BME280_pressure;Samples;Min_cycle;Max_cycle;Signal;HPM_P1;HPM_P2
2022/08/04 00:00:43;;;;;;;5.78;4.32;;;25.00;64.50;;;;;;5112199;28;20052;-73
2022/08/04 00:03:15;;;;;;;10.38;4.90;;;24.90;65.10;;;;;;5116315;28;20031;-73
2022/08/04 00:06:00;;;;;;;10.23;5.30;;;24.90;65.10;;;;;;5116490;28;20083;-73
2022/08/04 00:08:45;;;;;;;10.68;4.50;;;24.90;64.90;;;;;;5116229;28;20254;-73
2022/08/04 00:11:18;;;;;;;8.10;4.82;;;24.80;65.20;;;;;;5116193;28;20028;-73
2022/08/04 00:13:56;;;;;;;11.07;4.53;;;24.70;65.60;;;;;;5116191;28;20102;-73
2022/08/04 00:16:25;;;;;;;9.98;5.35;;;24.60;65.90;;;;;;5116149;28;20031;-73
2022/08/04 00:19:00;;;;;;;12.52;5.05;;;24.70;65.80;;;;;;5116091;28;20066;-73
2022/08/04 00:21:28;;;;;;;9.73;4.97;;;24.80;65.50;;;;;;5116038;28;20016;-73
2022/08/04 00:23:55;;;;;;;6.82;4.45;;;24.90;65.30;;;;;;5115931;28;20024;-73
2022/08/04 00:26:21;;;;;;;7.80;4.80;;;24.90;64.80;;;;;;5114942;28;20020;-73
2022/08/04 00:28:47;;;;;;;8.70;4.68;;;25.00;64.80;;;;;;5115779;28;20056;-73
2022/08/04 00:31:15;;;;;;;7.85;4.85;;;25.00;64.60;;;;;;5115815;28;20024;-73
2022/08/04 00:33:48;;;;;;;7.88;4.85;;;24.90;64.50;;;;;;5115756;28;20044;-73
2022/08/04 00:36:16;;;;;;;8.02;4.75;;;24.80;65.10;;;;;;5115730;28;20036;-73
2022/08/04 00:38:42;;;;;;;8.43;4.95;;;24.70;65.50;;;;;;5115614;28;20024;-73
2022/08/04 00:41:35;;;;;;;9.98;5.13;;;24.80;65.30;;;;;;5115608;28;20028;-73
2022/08/04 00:44:21;;;;;;;9.25;5.22;;;24.80;65.00;;;;;;5115616;28;20088;-73
2022/08/04 00:47:22;;;;;;;9.98;5.78;;;24.70;65.10;;;;;;5115671;28;20091;-73
2022/08/04 00:50:04;;;;;;;8.63;5.35;;;24.70;65.00;;;;;;5115605;28;20477;-73
2022/08/04 00:52:45;;;;;;;;;;;24.70;64.90;;;;;;5114900;28;20062;-73
2022/08/04 00:55:25;;;;;;;8.52;5.35;;;24.70;64.80;;;;;;5115478;28;19904;-73
2022/08/04 00:58:36;;;;;;;10.13;5.68;;;24.70;65.00;;;;;;5114989;28;20062;-73
2022/08/04 01:01:13;;;;;;;8.23;5.60;;;24.70;64.90;;;;;;5115246;28;20024;-73
2022/08/04 01:04:00;;;;;;;10.20;5.45;;;24.60;65.00;;;;;;5115226;28;20024;-73
2022/08/04 01:06:41;;;;;;;8.07;5.90;;;24.50;65.20;;;;;;5115126;28;20021;-73
2022/08/04 01:09:21;;;;;;;8.52;5.68;;;24.40;65.30;;;;;;5115085;28;20024;-73
2022/08/04 01:12:08;;;;;;;7.03;5.43;;;24.50;65.10;;;;;;5115204;28;20390;-73
2022/08/04 01:14:53;;;;;;;8.30;5.50;;;24.40;65.40;;;;;;5114992;28;20024;-73
2022/08/04 01:17:25;;;;;;;6.75;5.38;;;24.30;65.70;;;;;;5114835;28;20028;-72
2022/08/04 01:20:00;;;;;;;8.82;5.18;;;24.30;65.60;;;;;;5114859;28;20016;-73
2022/08/04 01:22:41;;;;;;;10.48;5.15;;;24.30;65.20;;;;;;5114830;28;20026;-73
2022/08/04 01:25:31;;;;;;;9.30;4.40;;;24.40;64.80;;;;;;5114905;28;20024;-73
2022/08/04 01:27:59;;;;;;;10.80;4.70;;;24.50;64.50;;;;;;5114763;28;20085;-73
2022/08/04 01:30:26;;;;;;;6.57;4.43;;;24.50;64.40;;;;;;5114641;28;20080;-72
2022/08/04 01:33:01;;;;;;;8.10;4.30;;;24.40;64.50;;;;;;5114621;28;20028;-73
2022/08/04 01:35:48;;;;;;;7.55;4.30;;;24.40;64.60;;;;;;5114597;28;20028;-73
2022/08/04 01:38:28;;;;;;;7.20;4.40;;;24.30;64.80;;;;;;5110381;28;20104;-73
2022/08/04 01:40:58;;;;;;;7.05;4.90;;;24.20;65.10;;;;;;5114618;28;20030;-72
2022/08/04 01:43:26;;;;;;;6.82;4.43;;;24.20;65.10;;;;;;5114410;28;20020;-73
2022/08/04 01:46:04;;;;;;;8.00;4.60;;;24.20;64.90;;;;;;5114352;28;20077;-73
2022/08/04 01:48:30;;;;;;;8.23;4.40;;;24.10;64.80;;;;;;5114275;28;20035;-72
2022/08/04 01:51:04;;;;;;;5.47;4.20;;;24.10;65.00;;;;;;5114299;28;20032;-73
2022/08/04 01:53:38;;;;;;;6.72;4.35;;;24.10;65.00;;;;;;5114261;28;20028;-73
2022/08/04 01:56:06;;;;;;;7.25;4.18;;;23.90;65.60;;;;;;5114199;28;20020;-73
2022/08/04 01:58:34;;;;;;;7.65;4.30;;;23.90;65.70;;;;;;5113887;28;20417;-73
2022/08/04 02:01:08;;;;;;;6.50;4.03;;;23.90;65.70;;;;;;5114074;28;20016;-73
2022/08/04 02:03:35;;;;;;;6.82;4.40;;;23.90;65.90;;;;;;5114000;28;20020;-73
2022/08/04 02:06:17;;;;;;;5.65;4.45;;;23.90;65.90;;;;;;5114039;28;20024;-73
2022/08/04 02:09:21;;;;;;;7.70;3.67;;;23.90;65.50;;;;;;5114195;28;20021;-73
2022/08/04 02:12:23;;;;;;;8.82;4.28;;;24.00;64.90;;;;;;5091841;28;20518;-73
2022/08/04 02:15:01;;;;;;;7.88;4.05;;;23.90;65.70;;;;;;5113980;28;20028;-73
2022/08/04 02:17:27;;;;;;;6.95;3.90;;;23.80;65.50;;;;;;5113910;28;20023;-73
2022/08/04 02:20:18;;;;;;;10.10;4.53;;;23.70;65.90;;;;;;5113795;28;20046;-73
2022/08/04 02:22:59;;;;;;;6.38;4.00;;;23.80;65.90;;;;;;5113812;28;20036;-73
2022/08/04 02:25:27;;;;;;;6.85;4.03;;;23.80;65.70;;;;;;5113788;28;20028;-73
2022/08/04 02:27:53;;;;;;;5.78;4.03;;;23.70;65.90;;;;;;5113768;28;20020;-73
2022/08/04 02:30:19;;;;;;;7.88;3.95;;;23.60;66.10;;;;;;5113828;28;20039;-73
2022/08/04 02:32:47;;;;;;;6.50;3.88;;;23.70;66.00;;;;;;5113653;28;20383;-73
2022/08/04 02:35:26;;;;;;;8.68;4.20;;;23.60;66.00;;;;;;5112677;28;20111;-73
2022/08/04 02:38:10;;;;;;;5.10;3.95;;;23.60;66.20;;;;;;5113548;28;20086;-73
2022/08/04 02:40:38;;;;;;;7.28;3.90;;;23.50;65.80;;;;;;5113511;28;20047;-73
2022/08/04 02:43:07;;;;;;;8.05;4.30;;;23.40;66.60;;;;;;5113520;28;20051;-73
2022/08/04 02:45:36;;;;;;;6.72;3.80;;;23.30;67.00;;;;;;5113476;28;20016;-72
2022/08/04 02:48:03;;;;;;;7.53;4.38;;;23.20;68.00;;;;;;5113625;28;20016;-73
2022/08/04 02:50:33;;;;;;;6.82;3.95;;;23.20;67.30;;;;;;5113439;28;20035;-73
2022/08/04 02:53:01;;;;;;;6.40;3.58;;;23.20;66.70;;;;;;5113518;28;20024;-73
2022/08/04 02:55:28;;;;;;;8.18;4.40;;;23.20;66.30;;;;;;5113430;28;20040;-73
2022/08/04 02:57:56;;;;;;;9.85;4.68;;;23.20;66.40;;;;;;5113109;28;20099;-73
2022/08/04 03:00:23;;;;;;;9.32;4.40;;;23.30;66.50;;;;;;5112370;28;20027;-73
2022/08/04 03:03:01;;;;;;;7.82;4.32;;;23.20;66.70;;;;;;5113379;28;20024;-73
2022/08/04 03:05:54;;;;;;;8.25;4.45;;;23.30;66.80;;;;;;5113497;28;20023;-73
2022/08/04 03:08:46;;;;;;;9.95;4.38;;;23.40;66.40;;;;;;5113349;28;20036;-73
2022/08/04 03:11:42;;;;;;;13.23;5.03;;;23.40;66.10;;;;;;5113248;28;20028;-73
2022/08/04 03:14:45;;;;;;;9.18;4.15;;;23.50;65.90;;;;;;5113867;28;20039;-73
2022/08/04 03:17:30;;;;;;;7.85;4.65;;;23.40;65.60;;;;;;5117177;28;20090;-73
2022/08/04 03:19:59;;;;;;;9.70;4.60;;;23.50;65.90;;;;;;5117372;28;20467;-73
2022/08/04 03:22:30;;;;;;;6.07;4.20;;;23.40;65.90;;;;;;5117141;28;20073;-73
2022/08/04 03:25:20;;;;;;;7.97;4.50;;;23.20;66.30;;;;;;5117098;28;20020;-73
2022/08/04 03:28:16;;;;;;;10.95;4.90;;;23.10;66.60;;;;;;5117085;28;20035;-73
2022/08/04 03:31:09;;;;;;;8.25;4.28;;;23.00;67.00;;;;;;5117121;28;20104;-73
2022/08/04 03:34:12;;;;;;;8.50;4.00;;;22.90;67.50;;;;;;5116967;28;20032;-73
2022/08/04 03:36:59;;;;;;;8.15;4.63;;;22.80;67.50;;;;;;5115750;28;20074;-73
2022/08/04 03:39:35;;;;;;;7.47;4.13;;;22.70;67.80;;;;;;5116795;28;20021;-73
2022/08/04 03:42:24;;;;;;;5.72;4.05;;;22.60;67.80;;;;;;5116814;28;20087;-73
2022/08/04 03:44:52;;;;;;;7.55;4.00;;;22.60;67.70;;;;;;5116898;28;20028;-73
2022/08/04 03:47:34;;;;;;;7.75;4.40;;;22.50;68.20;;;;;;5116678;28;20032;-73
2022/08/04 03:50:07;;;;;;;5.97;4.17;;;22.50;68.00;;;;;;5116687;28;20052;-73
2022/08/04 03:53:10;;;;;;;9.05;4.40;;;22.40;68.20;;;;;;5116573;28;20023;-73
2022/08/04 03:55:45;;;;;;;5.75;4.18;;;22.50;68.40;;;;;;5116497;28;20053;-73
2022/08/04 03:58:39;;;;;;;10.02;4.68;;;22.50;68.10;;;;;;5116233;28;20044;-73
2022/08/04 04:01:10;;;;;;;8.90;4.80;;;22.50;67.90;;;;;;5116574;28;20080;-73
2022/08/04 04:03:47;;;;;;;8.05;4.70;;;22.50;67.80;;;;;;5116494;28;20020;-73
2022/08/04 04:06:25;;;;;;;7.50;4.45;;;22.50;67.80;;;;;;5116498;28;20048;-73
2022/08/04 04:09:17;;;;;;;11.82;4.90;;;22.40;68.10;;;;;;5116206;28;20471;-73
2022/08/04 04:12:20;;;;;;;9.45;5.60;;;22.40;68.50;;;;;;5116276;28;20040;-73
2022/08/04 04:15:09;;;;;;;10.13;4.85;;;22.40;68.80;;;;;;5116128;28;20028;-73
2022/08/04 04:18:02;;;;;;;13.00;5.15;;;22.30;69.00;;;;;;5105690;28;20040;-73
2022/08/04 04:21:09;;;;;;;8.30;4.68;;;22.30;69.00;;;;;;5116057;28;20024;-73
2022/08/04 04:24:01;;;;;;;7.60;4.45;;;22.30;68.60;;;;;;5116136;28;20024;-73
2022/08/04 04:26:45;;;;;;;8.63;5.00;;;22.30;69.00;;;;;;5115912;28;20066;-73
2022/08/04 04:29:17;;;;;;;11.32;5.00;;;22.30;69.00;;;;;;5115754;28;20042;-73
2022/08/04 04:31:48;;;;;;;7.63;4.80;;;22.30;69.00;;;;;;5115822;28;20028;-73
2022/08/04 04:34:42;;;;;;;7.60;4.97;;;22.40;69.20;;;;;;5114760;28;20328;-73
2022/08/04 04:37:29;;;;;;;7.88;4.55;;;22.40;69.60;;;;;;5115665;28;20336;-73
2022/08/04 04:40:17;;;;;;;5.97;4.20;;;22.40;69.20;;;;;;5115715;28;20521;-73
2022/08/04 04:43:24;;;;;;;8.30;5.15;;;22.60;69.00;;;;;;5114780;28;20035;-73
2022/08/04 04:46:10;;;;;;;15.60;5.55;;;22.70;68.30;;;;;;5111756;28;20040;-73
2022/08/04 04:49:18;;;;;;;11.32;4.63;;;22.70;67.60;;;;;;5115542;28;20403;-73
2022/08/04 04:51:50;;;;;;;10.20;4.38;;;22.80;67.30;;;;;;5104611;28;20043;-73
2022/08/04 04:54:18;;;;;;;10.63;4.15;;;22.70;67.30;;;;;;5115434;28;20016;-73
2022/08/04 04:56:49;;;;;;;6.72;4.00;;;22.70;67.20;;;;;;5115249;28;20032;-73
2022/08/04 04:59:21;;;;;;;10.82;4.60;;;22.80;67.30;;;;;;5115209;28;20040;-73
2022/08/04 05:01:58;;;;;;;;;;;22.80;67.40;;;;;;5115689;28;20023;-73
2022/08/04 05:04:36;;;;;;;6.88;3.67;;;22.80;67.30;;;;;;5115193;28;19904;-73
2022/08/04 05:07:28;;;;;;;8.50;3.55;;;22.80;67.80;;;;;;5115075;28;20031;-73
2022/08/04 05:10:14;;;;;;;;;;;22.90;67.60;;;;;;5114525;28;20028;-73
2022/08/04 05:12:49;;;;;;;9.65;3.95;;;22.90;67.50;;;;;;5115230;28;19984;-73
2022/08/04 05:15:17;;;;;;;6.55;4.18;;;22.90;67.50;;;;;;5115018;28;20463;-73
2022/08/04 05:17:49;;;;;;;8.10;4.13;;;23.00;67.50;;;;;;5114828;28;20023;-73
2022/08/04 05:20:33;;;;;;;10.88;3.90;;;23.00;67.60;;;;;;5114937;28;20027;-73
2022/08/04 05:23:07;;;;;;;7.65;3.83;;;23.20;67.90;;;;;;5114820;28;20035;-72
2022/08/04 05:25:58;;;;;;;8.02;4.13;;;23.20;67.50;;;;;;5114822;28;20020;-73
2022/08/04 05:28:25;;;;;;;7.55;4.20;;;23.40;66.80;;;;;;5114618;28;20039;-73
2022/08/04 05:30:59;;;;;;;9.50;4.35;;;23.40;67.10;;;;;;5114607;28;20062;-72
2022/08/04 05:33:37;;;;;;;6.93;4.13;;;23.50;67.20;;;;;;5114801;28;20111;-72
2022/08/04 05:36:09;;;;;;;11.43;4.50;;;23.60;67.20;;;;;;5114561;28;20024;-73
2022/08/04 05:38:38;;;;;;;10.57;4.50;;;23.60;67.30;;;;;;5113962;28;20051;-73
2022/08/04 05:41:05;;;;;;;9.00;4.35;;;23.60;67.30;;;;;;5114595;28;20020;-73
2022/08/04 05:43:32;;;;;;;10.55;4.35;;;23.70;67.30;;;;;;5114443;28;20016;-72
2022/08/04 05:45:58;;;;;;;9.35;4.10;;;23.70;67.40;;;;;;5114410;28;20058;-72
2022/08/04 05:48:25;;;;;;;8.38;4.43;;;23.80;67.20;;;;;;5114333;28;20027;-73
2022/08/04 05:50:51;;;;;;;8.20;4.30;;;23.80;67.10;;;;;;5114270;28;20028;-73
2022/08/04 05:53:18;;;;;;;7.13;4.03;;;23.90;67.30;;;;;;5114251;28;20086;-72
2022/08/04 05:55:45;;;;;;;11.18;4.25;;;23.90;67.20;;;;;;5114198;28;20028;-73
2022/08/04 05:58:13;;;;;;;10.32;4.20;;;23.90;67.30;;;;;;5095981;28;20066;-73
2022/08/04 06:00:41;;;;;;;8.02;4.75;;;24.00;67.10;;;;;;5114127;28;20024;-73
2022/08/04 06:03:09;;;;;;;8.57;4.07;;;24.00;66.70;;;;;;5114104;28;20028;-72
2022/08/04 06:05:35;;;;;;;9.65;4.60;;;24.10;66.90;;;;;;5114041;28;20020;-72
2022/08/04 06:08:02;;;;;;;11.45;5.20;;;24.10;66.80;;;;;;5113908;28;20039;-72
2022/08/04 06:10:31;;;;;;;10.93;4.63;;;24.10;66.90;;;;;;5113068;28;20039;-73
2022/08/04 06:13:01;;;;;;;10.85;4.90;;;24.20;67.00;;;;;;5114091;28;20467;-73
2022/08/04 06:15:28;;;;;;;10.57;4.57;;;24.20;68.20;;;;;;5113941;28;20030;-72
2022/08/04 06:18:00;;;;;;;8.75;5.30;;;24.30;67.60;;;;;;5113774;28;20048;-72
2022/08/04 06:20:31;;;;;;;10.80;5.90;;;24.30;67.80;;;;;;5114011;28;20016;-72
2022/08/04 06:23:00;;;;;;;10.68;6.05;;;24.40;67.50;;;;;;5113866;28;20081;-72
2022/08/04 06:25:31;;;;;;;12.73;5.72;;;24.40;67.00;;;;;;5113754;28;20024;-72
2022/08/04 06:27:57;;;;;;;14.85;7.15;;;24.50;67.20;;;;;;5113717;28;20040;-72
2022/08/04 06:30:29;;;;;;;12.57;6.82;;;24.50;67.70;;;;;;5113688;28;20028;-72
2022/08/04 06:32:56;;;;;;;12.13;6.80;;;24.50;66.90;;;;;;5113761;28;20032;-73
2022/08/04 06:35:24;;;;;;;11.02;7.72;;;24.60;66.40;;;;;;5113658;28;20021;-73
2022/08/04 06:37:51;;;;;;;11.50;7.10;;;24.60;65.90;;;;;;5113495;28;20024;-72
2022/08/04 06:40:19;;;;;;;13.63;7.57;;;24.70;65.60;;;;;;5113589;28;20040;-73
2022/08/04 06:42:47;;;;;;;15.88;8.70;;;24.70;65.50;;;;;;5113544;28;20024;-72
2022/08/04 06:45:13;;;;;;;14.00;9.35;;;24.70;65.60;;;;;;5113516;28;20021;-72
2022/08/04 06:47:40;;;;;;;13.60;9.20;;;24.80;66.00;;;;;;5113492;28;20074;-72
2022/08/04 06:50:08;;;;;;;14.02;9.40;;;24.90;66.30;;;;;;5115783;28;20352;-73
2022/08/04 06:52:33;;;;;;;16.33;9.43;;;24.90;66.40;;;;;;5117750;28;20062;-72
2022/08/04 06:54:59;;;;;;;15.50;9.00;;;24.90;65.50;;;;;;5117697;28;20134;-72
2022/08/04 06:57:30;;;;;;;14.88;7.75;;;25.00;65.60;;;;;;5117596;28;20031;-72
2022/08/04 07:00:10;;;;;;;14.10;7.90;;;25.00;65.20;;;;;;5117457;28;20059;-72
2022/08/04 07:02:56;;;;;;;12.25;7.40;;;25.10;64.60;;;;;;5116691;28;20046;-73
2022/08/04 07:05:22;;;;;;;13.90;7.18;;;25.20;64.40;;;;;;5117396;28;20020;-72
2022/08/04 07:07:48;;;;;;;15.50;6.82;;;25.20;64.30;;;;;;5117428;28;20028;-72
2022/08/04 07:10:15;;;;;;;12.93;6.32;;;25.30;65.00;;;;;;5117404;28;20028;-73
2022/08/04 07:12:42;;;;;;;9.05;5.97;;;25.40;64.10;;;;;;5117343;28;20025;-72
2022/08/04 07:15:09;;;;;;;12.50;6.72;;;25.40;63.50;;;;;;5117329;28;20046;-72
2022/08/04 07:17:35;;;;;;;12.30;6.35;;;25.50;62.20;;;;;;5117180;28;20049;-72
2022/08/04 07:20:03;;;;;;;14.27;6.28;;;25.50;62.10;;;;;;5117248;28;20017;-73
2022/08/04 07:22:29;;;;;;;10.48;6.00;;;25.60;62.40;;;;;;5117044;28;20028;-72
2022/08/04 07:24:56;;;;;;;8.93;4.78;;;25.60;62.40;;;;;;5117108;28;20024;-73
2022/08/04 07:27:23;;;;;;;9.45;4.43;;;25.70;62.30;;;;;;5117243;28;20104;-72
2022/08/04 07:29:49;;;;;;;9.15;3.95;;;25.70;62.50;;;;;;5116973;28;20063;-72
2022/08/04 07:32:17;;;;;;;11.60;3.72;;;25.80;62.50;;;;;;5116959;28;20023;-73
2022/08/04 07:34:44;;;;;;;10.77;2.80;;;25.90;62.30;;;;;;5116930;28;20406;-73
2022/08/04 07:37:09;;;;;;;6.90;2.92;;;25.90;61.90;;;;;;5116835;28;20032;-72
2022/08/04 07:39:35;;;;;;;7.78;2.47;;;26.10;61.20;;;;;;5116852;28;20051;-73
2022/08/04 07:42:03;;;;;;;9.18;2.95;;;26.10;60.30;;;;;;5116806;28;20027;-73
2022/08/04 07:44:33;;;;;;;6.38;3.22;;;26.20;60.30;;;;;;5116768;28;20028;-73
2022/08/04 07:47:01;;;;;;;12.43;3.67;;;26.20;60.60;;;;;;5116696;28;20051;-73
2022/08/04 07:49:27;;;;;;;11.98;4.22;;;26.30;59.60;;;;;;5116724;28;20039;-73
2022/08/04 07:51:54;;;;;;;10.70;3.63;;;26.40;59.50;;;;;;5116579;28;20024;-73
2022/08/04 07:54:21;;;;;;;9.90;3.53;;;26.40;58.70;;;;;;5116701;28;20028;-73
2022/08/04 07:56:48;;;;;;;10.80;3.80;;;26.40;58.40;;;;;;5116440;28;20375;-73
2022/08/04 07:59:15;;;;;;;14.10;3.85;;;26.40;58.60;;;;;;5116288;28;20040;-73
2022/08/04 08:01:41;;;;;;;13.60;4.80;;;26.50;59.00;;;;;;5115991;28;20040;-72
2022/08/04 08:04:09;;;;;;;12.07;4.70;;;26.50;60.20;;;;;;5116382;28;20028;-72
2022/08/04 08:06:36;;;;;;;11.88;4.93;;;26.50;59.30;;;;;;5116328;28;20042;-72
2022/08/04 08:09:20;;;;;;;13.85;5.07;;;26.50;58.80;;;;;;5116286;28;20016;-73
2022/08/04 08:11:47;;;;;;;13.07;5.53;;;26.60;58.30;;;;;;5116284;28;20031;-73
2022/08/04 08:14:16;;;;;;;13.30;5.63;;;26.60;58.80;;;;;;5116212;28;20017;-72
2022/08/04 08:16:42;;;;;;;12.93;5.57;;;26.60;59.20;;;;;;5116181;28;20058;-72
2022/08/04 08:19:08;;;;;;;11.98;5.63;;;26.60;59.40;;;;;;5115072;28;20084;-73
2022/08/04 08:21:34;;;;;;;9.52;5.35;;;26.60;58.80;;;;;;5116037;28;20031;-73
2022/08/04 08:24:00;;;;;;;12.75;5.10;;;26.70;58.90;;;;;;5115991;28;20028;-73
2022/08/04 08:26:27;;;;;;;14.18;5.93;;;26.80;59.20;;;;;;5115961;28;20024;-73
2022/08/04 08:28:53;;;;;;;9.48;4.78;;;26.90;58.80;;;;;;5115954;28;20398;-72
2022/08/04 08:31:19;;;;;;;13.88;5.55;;;27.00;59.40;;;;;;5115900;28;20044;-72
2022/08/04 08:33:46;;;;;;;11.95;5.05;;;27.10;58.50;;;;;;5114881;28;20024;-72
2022/08/04 08:36:11;;;;;;;8.75;4.93;;;27.20;57.70;;;;;;5115728;28;20031;-72
2022/08/04 08:38:55;;;;;;;8.45;4.50;;;27.20;55.80;;;;;;5115657;28;20024;-72
2022/08/04 08:41:39;;;;;;;8.55;4.07;;;27.20;56.00;;;;;;5115788;28;20020;-72
2022/08/04 08:44:42;;;;;;;8.00;3.15;;;27.30;54.90;;;;;;5115745;28;20024;-73
2022/08/04 08:47:45;;;;;;;10.35;3.35;;;27.40;54.50;;;;;;5115747;28;20083;-72
2022/08/04 08:50:48;;;;;;;7.25;3.50;;;27.50;55.00;;;;;;5115492;28;20073;-73
2022/08/04 08:53:32;;;;;;;8.27;4.10;;;27.60;54.40;;;;;;5115418;28;20051;-72
2022/08/04 08:56:13;;;;;;;11.70;4.00;;;27.60;55.20;;;;;;5115535;28;20455;-72
2022/08/04 08:59:05;;;;;;;7.90;3.25;;;27.70;54.50;;;;;;5115213;28;20051;-72
2022/08/04 09:01:52;;;;;;;8.55;4.43;;;27.70;54.90;;;;;;5115295;28;20046;-72
2022/08/04 09:04:42;;;;;;;10.00;5.28;;;27.90;55.30;;;;;;5115405;28;20024;-72
2022/08/04 09:07:42;;;;;;;8.50;3.70;;;28.00;53.90;;;;;;5115209;28;20062;-72
2022/08/04 09:10:39;;;;;;;7.30;3.20;;;28.00;53.70;;;;;;5115144;28;20085;-73
2022/08/04 09:13:15;;;;;;;12.38;4.85;;;28.10;52.00;;;;;;5113806;28;20028;-72
2022/08/04 09:15:59;;;;;;;10.95;4.93;;;28.00;52.20;;;;;;5115185;28;20028;-72
2022/08/04 09:18:49;;;;;;;10.18;5.15;;;28.00;51.90;;;;;;5114882;28;20028;-72
2022/08/04 09:21:15;;;;;;;9.63;5.47;;;28.00;52.70;;;;;;5115063;28;20027;-72
2022/08/04 09:24:02;;;;;;;9.73;5.72;;;28.10;54.70;;;;;;5114818;28;20098;-72
2022/08/04 09:26:55;;;;;;;10.68;6.20;;;28.20;53.60;;;;;;5114817;28;20024;-73
2022/08/04 09:29:33;;;;;;;9.98;6.32;;;28.20;53.80;;;;;;5113956;28;20108;-72
2022/08/04 09:32:40;;;;;;;9.68;6.03;;;28.20;53.60;;;;;;5114858;28;20028;-73
2022/08/04 09:35:20;;;;;;;9.15;5.07;;;28.20;53.90;;;;;;5114810;28;20023;-72
2022/08/04 09:38:15;;;;;;;10.55;5.60;;;28.30;54.10;;;;;;5114702;28;20039;-72
2022/08/04 09:40:47;;;;;;;11.80;5.50;;;28.20;54.10;;;;;;5114530;28;20016;-73
2022/08/04 09:43:24;;;;;;;11.43;5.32;;;28.20;55.40;;;;;;5114495;28;20020;-73
2022/08/04 09:46:23;;;;;;;5.80;4.05;;;28.30;55.80;;;;;;5114439;28;20031;-73
2022/08/04 09:49:01;;;;;;;7.43;3.90;;;28.50;56.30;;;;;;5114338;28;20079;-73
2022/08/04 09:51:57;;;;;;;6.32;4.15;;;28.60;56.00;;;;;;5113254;28;20031;-73
2022/08/04 09:54:50;;;;;;;8.32;4.28;;;28.90;55.20;;;;;;5114198;28;20079;-73
2022/08/04 09:57:35;;;;;;;10.23;3.70;;;29.00;54.60;;;;;;5114221;28;20055;-73
2022/08/04 10:00:05;;;;;;;14.68;3.67;;;28.90;53.30;;;;;;5114073;28;20048;-73
2022/08/04 10:02:37;;;;;;;7.28;3.40;;;28.90;53.90;;;;;;5114218;28;20044;-73
2022/08/04 10:05:07;;;;;;;5.40;3.00;;;28.90;53.50;;;;;;5114168;28;20023;-73
2022/08/04 10:08:10;;;;;;;7.10;2.58;;;28.90;52.70;;;;;;5114097;28;20020;-73
2022/08/04 10:11:08;;;;;;;4.40;2.20;;;28.80;51.10;;;;;;5113984;28;20024;-73
2022/08/04 10:14:11;;;;;;;7.10;2.42;;;28.70;52.20;;;;;;5111663;28;20032;-73
2022/08/04 10:16:57;;;;;;;5.30;2.42;;;28.60;53.00;;;;;;5102592;28;20036;-73
2022/08/04 10:19:22;;;;;;;4.63;2.35;;;28.50;52.40;;;;;;5113898;28;20474;-73
2022/08/04 10:22:15;;;;;;;7.68;2.42;;;28.40;52.50;;;;;;5113857;28;20039;-73
2022/08/04 10:24:46;;;;;;;;;;;28.30;52.20;;;;;;5114252;28;20115;-73
2022/08/04 10:27:21;;;;;;;5.65;2.20;;;28.20;52.00;;;;;;5113742;28;19925;-73
2022/08/04 10:29:47;;;;;;;4.55;1.85;;;28.00;52.70;;;;;;5113657;28;20048;-72
2022/08/04 10:32:19;;;;;;;5.07;1.92;;;27.90;53.20;;;;;;5113785;28;20028;-73
2022/08/04 10:35:01;;;;;;;;;;;27.80;54.10;;;;;;5114086;28;20027;-73
2022/08/04 10:37:38;;;;;;;5.72;1.80;;;27.70;54.00;;;;;;5113694;28;19916;-73
2022/08/04 10:40:44;;;;;;;6.68;1.90;;;27.50;53.80;;;;;;5113630;28;20025;-73
2022/08/04 10:43:38;;;;;;;5.88;2.00;;;27.40;54.20;;;;;;5113787;28;20029;-73
2022/08/04 10:46:04;;;;;;;6.38;2.13;;;27.30;55.00;;;;;;5113560;28;20031;-73
2022/08/04 10:48:55;;;;;;;6.50;1.85;;;27.20;56.30;;;;;;5113466;28;20028;-73
2022/08/04 10:51:44;;;;;;;6.88;2.25;;;27.10;57.90;;;;;;5113477;28;20031;-73
2022/08/04 10:54:20;;;;;;;4.28;1.70;;;26.90;60.00;;;;;;5113515;28;20032;-73
2022/08/04 10:56:52;;;;;;;6.78;2.10;;;26.70;60.80;;;;;;5113404;28;20020;-73
2022/08/04 10:59:33;;;;;;;5.30;1.80;;;26.50;61.60;;;;;;5113336;28;20048;-72
2022/08/04 11:02:15;;;;;;;9.02;2.10;;;26.40;62.90;;;;;;5113573;28;20094;-73
2022/08/04 11:04:46;;;;;;;12.30;3.28;;;26.30;63.20;;;;;;5113427;28;20020;-73
2022/08/04 11:07:14;;;;;;;6.68;2.50;;;26.20;64.60;;;;;;5113362;28;20020;-73
2022/08/04 11:09:42;;;;;;;5.28;2.13;;;26.20;64.90;;;;;;5113355;28;20020;-73
2022/08/04 11:12:08;;;;;;;12.05;3.03;;;26.10;65.70;;;;;;5113286;28;20036;-73
2022/08/04 11:14:38;;;;;;;11.57;2.92;;;26.10;66.20;;;;;;5113193;28;20028;-73
2022/08/04 11:17:08;;;;;;;6.07;2.65;;;26.20;67.20;;;;;;5113191;28;20043;-73
2022/08/04 11:19:38;;;;;;;6.63;2.50;;;26.20;68.30;;;;;;5113222;28;20020;-73
2022/08/04 11:22:21;;;;;;;8.32;2.97;;;26.20;68.00;;;;;;5113279;28;20016;-73
2022/08/04 11:25:09;;;;;;;10.35;2.95;;;26.20;68.40;;;;;;5113231;28;20027;-73
2022/08/04 11:27:43;;;;;;;8.38;3.10;;;26.30;68.80;;;;;;5112149;28;20087;-73
2022/08/04 11:30:12;;;;;;;7.90;3.47;;;26.40;68.70;;;;;;5113121;28;20039;-73
2022/08/04 11:32:37;;;;;;;6.80;3.28;;;26.40;68.90;;;;;;5113104;28;20087;-73
2022/08/04 11:35:08;;;;;;;7.35;3.00;;;26.50;68.90;;;;;;5113476;28;20032;-74
2022/08/04 11:37:40;;;;;;;6.53;3.40;;;26.50;69.10;;;;;;5116901;28;20031;-73
2022/08/04 11:40:19;;;;;;;6.20;3.15;;;26.60;68.80;;;;;;5117088;28;20016;-73
2022/08/04 11:42:58;;;;;;;4.20;2.50;;;26.50;68.20;;;;;;5116015;28;20050;-73
2022/08/04 11:45:53;;;;;;;5.85;3.13;;;26.50;67.50;;;;;;5116976;28;20023;-73
2022/08/04 11:48:26;;;;;;;7.00;3.40;;;26.40;68.10;;;;;;5116785;28;20020;-73
2022/08/04 11:50:53;;;;;;;4.45;2.45;;;26.30;68.00;;;;;;5116702;28;20046;-73
2022/08/04 11:53:23;;;;;;;4.03;1.90;;;26.20;66.00;;;;;;5116686;28;20028;-73
2022/08/04 11:55:52;;;;;;;6.22;1.60;;;26.20;65.70;;;;;;5116586;28;20362;-73
2022/08/04 11:58:20;;;;;;;3.78;1.80;;;26.20;65.70;;;;;;5116258;28;20078;-73
2022/08/04 12:01:16;;;;;;;5.18;1.80;;;26.30;65.70;;;;;;5116548;28;20043;-72
2022/08/04 12:03:49;;;;;;;4.00;1.88;;;26.50;65.50;;;;;;5116462;28;20016;-73
2022/08/04 12:06:29;;;;;;;5.18;1.80;;;26.60;64.40;;;;;;5116419;28;20024;-73
2022/08/04 12:09:19;;;;;;;3.08;1.48;;;26.80;64.00;;;;;;5116378;28;20090;-72
2022/08/04 12:12:12;;;;;;;4.22;1.48;;;27.00;63.60;;;;;;5116287;28;20368;-73
2022/08/04 12:14:57;;;;;;;8.05;2.05;;;27.10;62.60;;;;;;5116398;28;20043;-73
2022/08/04 12:17:34;;;;;;;4.15;1.58;;;27.20;62.00;;;;;;5116085;28;20445;-73
2022/08/04 12:20:05;;;;;;;4.05;1.52;;;27.30;61.10;;;;;;5116149;28;20028;-72
2022/08/04 12:22:34;;;;;;;5.20;1.70;;;27.30;60.80;;;;;;5116106;28;20027;-72
2022/08/04 12:25:07;;;;;;;4.93;1.42;;;27.40;60.60;;;;;;5116004;28;20028;-72
2022/08/04 12:27:40;;;;;;;5.22;1.75;;;27.50;60.60;;;;;;5115990;28;20024;-72
2022/08/04 12:30:07;;;;;;;6.25;2.10;;;27.70;59.20;;;;;;5115854;28;20020;-72
2022/08/04 12:33:02;;;;;;;4.28;1.83;;;27.80;59.20;;;;;;5115992;28;20050;-72
2022/08/04 12:35:55;;;;;;;5.60;1.80;;;27.80;58.70;;;;;;5115979;28;20024;-72
2022/08/04 12:38:24;;;;;;;6.18;2.03;;;27.90;58.90;;;;;;5115719;28;20028;-72
2022/08/04 12:40:53;;;;;;;5.88;1.73;;;27.90;59.20;;;;;;5115708;28;20020;-72
2022/08/04 12:43:42;;;;;;;3.88;1.75;;;27.90;59.90;;;;;;5115686;28;20016;-72
2022/08/04 12:46:26;;;;;;;6.32;1.85;;;27.90;58.90;;;;;;5115301;28;20394;-72
2022/08/04 12:48:59;;;;;;;5.32;1.92;;;27.80;58.80;;;;;;5114132;28;20054;-72
2022/08/04 12:51:26;;;;;;;3.13;1.60;;;27.80;58.70;;;;;;5115558;28;20020;-72
2022/08/04 12:53:52;;;;;;;3.33;2.22;;;27.80;58.90;;;;;;5115570;28;20028;-72
2022/08/04 12:56:26;;;;;;;4.90;2.05;;;27.80;59.20;;;;;;5115447;28;20024;-72
2022/08/04 12:58:59;;;;;;;8.55;2.38;;;27.80;59.10;;;;;;5115127;28;20061;-72
2022/08/04 13:01:25;;;;;;;5.53;2.15;;;27.80;59.00;;;;;;5115348;28;20027;-72
2022/08/04 13:03:55;;;;;;;3.63;2.17;;;27.80;59.20;;;;;;5115245;28;20036;-72
2022/08/04 13:06:40;;;;;;;3.97;1.80;;;27.80;59.10;;;;;;5115226;28;20020;-72
2022/08/04 13:09:17;;;;;;;6.35;2.13;;;27.80;58.50;;;;;;5115194;28;20024;-72
2022/08/04 13:11:49;;;;;;;5.40;2.33;;;27.80;59.10;;;;;;5115150;28;20052;-72
2022/08/04 13:14:16;;;;;;;6.60;2.30;;;27.70;58.60;;;;;;5115129;28;20047;-72
2022/08/04 13:16:42;;;;;;;5.75;2.47;;;27.60;59.10;;;;;;5114923;28;20072;-72
2022/08/04 13:19:09;;;;;;;4.57;2.63;;;27.50;59.70;;;;;;5114945;28;20028;-72
2022/08/04 13:21:41;;;;;;;5.05;2.65;;;27.50;60.00;;;;;;5114889;28;20016;-72
2022/08/04 13:24:10;;;;;;;;;;;27.50;60.40;;;;;;5114419;28;20024;-72
2022/08/04 13:26:37;;;;;;;6.70;3.22;;;27.50;60.80;;;;;;5114849;28;19911;-72
2022/08/04 13:29:06;;;;;;;5.18;2.85;;;27.50;61.00;;;;;;5114700;28;20020;-72
2022/08/04 13:31:34;;;;;;;6.00;3.45;;;27.60;61.00;;;;;;5114745;28;20054;-72
2022/08/04 13:34:08;;;;;;;5.28;3.00;;;27.80;60.90;;;;;;5114697;28;20020;-72